Terminal Aerodrome Forecast
Issued by NWS

Home | Current Version | Previous Version | Graphics & Text | Print | Product List | Glossary On
Versions: 1 2 3 4 5 6 7 8 9 10 11 12 13 14 15 16 17 18 19
000
FTUS43 KIWX 221316 AAA
TAFSBN
TAF AMD
KSBN 221316Z 2213/2312 15009KT 5SM TSRA OVC040CB WS020/20060KT
     FM221400 16010KT 5SM -RA SCT009 BKN025 WS020/20045KT
      TEMPO 2214/2216 1SM RA SCT004 BKN007
     FM221700 17014G23KT 4SM -SHRA OVC015
     FM222000 20009KT P6SM VCSH BKN030
     FM230400 22007KT 5SM -SHRA OVC020=

USA.gov is the U.S. government's official web portal to all federal, state and local government web resources and services.